createdAt,value
2019-01-22T00:00:21.620Z,-1.10
2019-01-22T00:02:50.345Z,-1.10
2019-01-22T00:05:18.927Z,-1.10
2019-01-22T00:07:47.566Z,-1.20
2019-01-22T00:10:16.454Z,-1.30
2019-01-22T00:12:45.051Z,-1.30
2019-01-22T00:15:14.361Z,-1.40
2019-01-22T00:17:43.248Z,-1.50
2019-01-22T00:20:13.246Z,-1.60
2019-01-22T00:22:41.900Z,-1.60
2019-01-22T00:25:14.963Z,-1.60
2019-01-22T00:27:43.651Z,-1.60
2019-01-22T00:30:17.917Z,-1.70
2019-01-22T00:32:46.548Z,-1.70
2019-01-22T00:35:15.222Z,-1.70
2019-01-22T00:37:43.802Z,-1.80
2019-01-22T00:40:15.290Z,-1.80
2019-01-22T00:42:44.786Z,-1.90
2019-01-22T00:45:13.888Z,-1.90
2019-01-22T00:47:42.464Z,-1.90
2019-01-22T00:50:14.065Z,-2.00
2019-01-22T00:52:42.641Z,-2.00
2019-01-22T00:55:13.170Z,-2.00
2019-01-22T00:57:41.815Z,-2.10
2019-01-22T01:00:13.469Z,-2.10
2019-01-22T01:02:42.088Z,-2.10
2019-01-22T01:05:10.776Z,-2.20
2019-01-22T01:07:39.354Z,-2.10
2019-01-22T01:10:11.191Z,-2.20
2019-01-22T01:12:39.753Z,-2.10
2019-01-22T01:15:10.795Z,-2.10
2019-01-22T01:17:39.356Z,-2.10
2019-01-22T01:20:11.017Z,-2.10
2019-01-22T01:22:39.658Z,-2.20
2019-01-22T01:25:10.585Z,-2.20
2019-01-22T01:27:39.187Z,-2.30
2019-01-22T01:30:10.852Z,-2.30
2019-01-22T01:32:39.426Z,-2.40
2019-01-22T01:35:08.440Z,-2.40
2019-01-22T01:37:37.078Z,-2.50
2019-01-22T01:40:08.809Z,-2.50
2019-01-22T01:42:37.367Z,-2.60
2019-01-22T01:45:08.474Z,-2.60
2019-01-22T01:47:37.139Z,-2.60
2019-01-22T01:50:11.745Z,-2.60
2019-01-22T01:52:40.341Z,-2.70
2019-01-22T01:55:10.654Z,-2.70
2019-01-22T01:57:39.257Z,-2.70
2019-01-22T02:00:10.908Z,-2.70
2019-01-22T02:02:39.502Z,-2.70
2019-01-22T02:05:08.070Z,-2.70
2019-01-22T02:07:36.683Z,-2.80
2019-01-22T02:10:11.180Z,-2.80
2019-01-22T02:12:42.842Z,-2.90
2019-01-22T02:15:17.371Z,-2.90
2019-01-22T02:18:00.859Z,-2.90
2019-01-22T02:20:41.133Z,-3.00
2019-01-22T02:23:30.742Z,-3.00
2019-01-22T02:26:11.210Z,-3.00
2019-01-22T02:28:45.678Z,-3.00
2019-01-22T02:31:38.134Z,-3.10
2019-01-22T02:34:12.604Z,-3.10
2019-01-22T02:36:50.588Z,-3.10
2019-01-22T02:39:40.349Z,-3.20
2019-01-22T02:42:11.939Z,-3.20
2019-01-22T02:45:08.835Z,-3.20
2019-01-22T02:47:43.090Z,-3.20
2019-01-22T02:50:47.521Z,-3.30
2019-01-22T02:53:19.177Z,-3.30
2019-01-22T02:55:59.767Z,-3.30
2019-01-22T02:58:43.077Z,-3.30
2019-01-22T03:01:42.910Z,-3.40
2019-01-22T03:04:26.298Z,-3.30
2019-01-22T03:07:12.837Z,-3.40
2019-01-22T03:09:53.140Z,-3.40
2019-01-22T03:12:33.863Z,-3.40
2019-01-22T03:15:11.495Z,-3.50
2019-01-22T03:17:49.201Z,-3.50
2019-01-22T03:20:23.430Z,-3.50
2019-01-22T03:22:57.698Z,-3.50
2019-01-22T03:25:32.240Z,-3.40
2019-01-22T03:28:15.510Z,-3.50
2019-01-22T03:30:52.715Z,-3.50
2019-01-22T03:33:27.035Z,-3.60
2019-01-22T03:36:17.803Z,-3.60
2019-01-22T03:39:07.086Z,-3.70
2019-01-22T03:41:38.768Z,-3.60
2019-01-22T03:44:19.434Z,-3.60
2019-01-22T03:46:53.878Z,-3.70
2019-01-22T03:49:28.478Z,-3.70
2019-01-22T03:52:11.800Z,-3.80
2019-01-22T03:54:49.410Z,-3.70
2019-01-22T03:57:21.162Z,-3.70
2019-01-22T03:59:49.749Z,-3.70
2019-01-22T04:02:18.393Z,-3.70
2019-01-22T04:04:46.959Z,-3.80
2019-01-22T04:07:15.498Z,-3.80
2019-01-22T04:09:44.715Z,-3.80
2019-01-22T04:12:13.300Z,-3.80
2019-01-22T04:14:41.933Z,-3.80
2019-01-22T04:17:10.524Z,-3.80
2019-01-22T04:19:39.160Z,-3.80
2019-01-22T04:22:10.089Z,-3.80
2019-01-22T04:24:50.648Z,-3.80
2019-01-22T04:27:28.064Z,-3.80
2019-01-22T04:30:02.323Z,-3.80
2019-01-22T04:32:36.499Z,-3.80
2019-01-22T04:35:17.054Z,-3.80
2019-01-22T04:37:57.486Z,-3.80
2019-01-22T04:40:45.757Z,-3.80
2019-01-22T04:43:17.402Z,-3.80
2019-01-22T04:45:57.958Z,-3.80
2019-01-22T04:48:51.974Z,-3.80
2019-01-22T04:51:26.400Z,-3.90
2019-01-22T04:54:09.567Z,-3.90
2019-01-22T04:56:56.507Z,-3.90
2019-01-22T04:59:47.622Z,-3.90
2019-01-22T05:02:21.904Z,-3.80
2019-01-22T05:05:02.556Z,-3.90
2019-01-22T05:07:37.118Z,-3.90
2019-01-22T05:10:17.725Z,-4.00
2019-01-22T05:12:58.165Z,-3.90
2019-01-22T05:15:35.842Z,-3.90
2019-01-22T05:18:28.481Z,-3.90
2019-01-22T05:21:21.058Z,-3.90
2019-01-22T05:24:17.623Z,-3.90
2019-01-22T05:26:48.265Z,-3.90
2019-01-22T05:29:19.954Z,-3.90
2019-01-22T05:31:54.134Z,-3.90
2019-01-22T05:34:37.400Z,-3.90
2019-01-22T05:37:17.886Z,-3.90
2019-01-22T05:39:49.542Z,-4.00
2019-01-22T05:42:27.026Z,-4.10
2019-01-22T05:44:58.905Z,-4.10
2019-01-22T05:47:42.525Z,-4.10
2019-01-22T05:50:19.791Z,-4.20
2019-01-22T05:53:02.917Z,-4.20
2019-01-22T05:55:34.578Z,-4.20
2019-01-22T05:58:06.151Z,-4.30
2019-01-22T06:00:43.040Z,-4.30
2019-01-22T06:03:14.702Z,-4.30
2019-01-22T06:06:05.751Z,-4.30
2019-01-22T06:08:52.510Z,-4.30
2019-01-22T06:11:57.068Z,-4.20
2019-01-22T06:14:37.348Z,-4.20
2019-01-22T06:17:14.439Z,-4.30
2019-01-22T06:20:12.870Z,-4.30
2019-01-22T06:22:47.410Z,-4.20
2019-01-22T06:25:27.174Z,-4.20
2019-01-22T06:27:58.738Z,-4.30
2019-01-22T06:30:44.542Z,-4.20
2019-01-22T06:33:21.908Z,-4.20
2019-01-22T06:36:14.242Z,-4.20
2019-01-22T06:38:45.889Z,-4.20
2019-01-22T06:41:23.609Z,-4.10
2019-01-22T06:44:12.905Z,-4.10
2019-01-22T06:46:50.418Z,-4.10
2019-01-22T06:49:33.677Z,-4.10
2019-01-22T06:52:27.661Z,-4.10
2019-01-22T06:55:11.188Z,-4.20
2019-01-22T06:57:45.629Z,-4.10
2019-01-22T07:00:41.049Z,-4.10
2019-01-22T07:03:18.409Z,-4.10
2019-01-22T07:05:50.083Z,-4.10
2019-01-22T07:08:21.656Z,-4.20
2019-01-22T07:10:56.243Z,-4.20
2019-01-22T07:13:48.514Z,-4.20
2019-01-22T07:16:22.866Z,-4.20
2019-01-22T07:19:06.157Z,-4.10
2019-01-22T07:21:54.043Z,-4.10
2019-01-22T07:24:25.618Z,-4.10
2019-01-22T07:27:02.851Z,-4.10
2019-01-22T07:29:49.387Z,-4.10
2019-01-22T07:32:21.102Z,-4.20
2019-01-22T07:35:16.436Z,-4.10
2019-01-22T07:37:48.117Z,-4.10
2019-01-22T07:40:28.522Z,-4.10
2019-01-22T07:43:02.850Z,-4.10
2019-01-22T07:45:53.900Z,-4.00
2019-01-22T07:48:31.597Z,-4.00
2019-01-22T07:51:05.924Z,-3.90
2019-01-22T07:53:40.499Z,-3.90
2019-01-22T07:56:14.979Z,-3.90
2019-01-22T07:58:46.651Z,-3.90
2019-01-22T08:01:30.124Z,-3.90
2019-01-22T08:04:29.597Z,-3.70
2019-01-22T08:07:14.496Z,-3.60
2019-01-22T08:09:49.133Z,-3.70
2019-01-22T08:12:20.715Z,-3.60
2019-01-22T08:15:01.247Z,-3.50
2019-01-22T08:17:38.731Z,-3.50
2019-01-22T08:20:27.919Z,-3.50
2019-01-22T08:23:05.378Z,-3.40
2019-01-22T08:25:48.989Z,-3.40
2019-01-22T08:28:29.110Z,-3.40
2019-01-22T08:31:09.449Z,-3.30
2019-01-22T08:33:42.307Z,-3.30
2019-01-22T08:36:40.313Z,-3.30
2019-01-22T08:39:14.909Z,-3.20
2019-01-22T08:41:49.415Z,-3.10
2019-01-22T08:44:27.895Z,-3.10
2019-01-22T08:47:13.754Z,-3.00
2019-01-22T08:50:01.538Z,-2.90
2019-01-22T08:52:41.742Z,-2.70
2019-01-22T08:55:16.166Z,-2.60
2019-01-22T08:58:20.525Z,-2.40
2019-01-22T09:01:00.968Z,-2.50
2019-01-22T09:03:50.572Z,-2.40
2019-01-22T09:06:31.137Z,-2.30
2019-01-22T09:09:14.701Z,-2.20
2019-01-22T09:12:01.186Z,-2.30
2019-01-22T09:14:32.755Z,-2.20
2019-01-22T09:17:16.807Z,-2.20
2019-01-22T09:19:48.446Z,-2.10
2019-01-22T09:22:50.197Z,-2.10
2019-01-22T09:25:38.355Z,-2.00
2019-01-22T09:28:09.990Z,-1.90
2019-01-22T09:30:41.654Z,-1.80
2019-01-22T09:33:25.232Z,-1.70
2019-01-22T09:36:05.509Z,-1.60
2019-01-22T09:38:34.245Z,-1.50
2019-01-22T09:41:02.889Z,-1.40
2019-01-22T09:43:31.755Z,-1.30
2019-01-22T09:46:00.343Z,-1.20
2019-01-22T09:48:28.953Z,-1.10
2019-01-22T09:50:57.525Z,-0.90
2019-01-22T09:53:26.043Z,-0.90
2019-01-22T09:56:00.550Z,-0.90
2019-01-22T09:58:24.867Z,-0.80
2019-01-22T10:00:53.453Z,-0.90
2019-01-22T10:03:22.046Z,-0.70
2019-01-22T10:05:50.553Z,-0.70
2019-01-22T10:08:19.134Z,-0.70
2019-01-22T10:10:47.782Z,-0.80
2019-01-22T10:13:16.470Z,-0.80
2019-01-22T10:15:45.049Z,-0.70
2019-01-22T10:18:13.806Z,-0.60
2019-01-22T10:20:42.454Z,-0.60
2019-01-22T10:23:10.966Z,-0.50
2019-01-22T10:25:39.456Z,-0.40
2019-01-22T10:28:08.055Z,-0.30
2019-01-22T10:30:36.712Z,-0.30
2019-01-22T10:33:05.727Z,-0.30
2019-01-22T10:35:34.358Z,-0.30
2019-01-22T10:38:02.896Z,-0.20
2019-01-22T10:40:31.449Z,-0.10
2019-01-22T10:42:59.967Z,0.00
2019-01-22T10:45:28.570Z,0.00
2019-01-22T10:47:57.129Z,0.00
2019-01-22T10:50:25.790Z,0.10
2019-01-22T10:52:54.375Z,0.10
2019-01-22T10:55:23.024Z,0.10
2019-01-22T10:57:51.737Z,0.10
2019-01-22T11:00:25.820Z,0.20
2019-01-22T11:02:54.475Z,0.30
2019-01-22T11:05:26.148Z,0.30
2019-01-22T11:07:55.984Z,0.40
2019-01-22T11:10:24.688Z,0.40
2019-01-22T11:12:53.270Z,0.50
2019-01-22T11:15:27.897Z,0.50
2019-01-22T11:17:52.078Z,0.60
2019-01-22T11:20:23.510Z,0.70
2019-01-22T11:22:52.070Z,0.80
2019-01-22T11:25:23.776Z,0.80
2019-01-22T11:27:52.435Z,0.90
2019-01-22T11:30:23.142Z,0.90
2019-01-22T11:32:51.718Z,0.90
2019-01-22T11:35:24.582Z,1.00
2019-01-22T11:37:53.506Z,1.10
2019-01-22T11:40:29.388Z,1.10
2019-01-22T11:42:57.954Z,1.10
2019-01-22T11:45:26.627Z,1.20
2019-01-22T11:47:55.266Z,1.20
2019-01-22T11:50:25.230Z,1.30
2019-01-22T11:52:54.462Z,1.40
2019-01-22T11:55:23.042Z,1.50
2019-01-22T11:57:51.611Z,1.60
2019-01-22T12:00:36.439Z,1.60
2019-01-22T12:03:05.621Z,1.70
2019-01-22T12:05:35.269Z,1.70
2019-01-22T12:08:04.078Z,1.70
2019-01-22T12:10:32.672Z,1.70
2019-01-22T12:13:01.266Z,1.80
2019-01-22T12:15:29.939Z,1.80
2019-01-22T12:17:58.586Z,1.90
2019-01-22T12:20:30.285Z,1.90
2019-01-22T12:22:58.898Z,2.00
2019-01-22T12:25:27.497Z,2.00
2019-01-22T12:27:56.066Z,2.10
2019-01-22T12:30:32.354Z,2.10
2019-01-22T12:33:00.988Z,2.20
2019-01-22T12:35:29.648Z,2.20
2019-01-22T12:37:59.482Z,2.20
2019-01-22T12:40:28.834Z,2.30
2019-01-22T12:42:57.540Z,2.30
2019-01-22T12:45:34.239Z,2.40
2019-01-22T12:48:06.133Z,2.40
2019-01-22T12:50:35.471Z,2.50
2019-01-22T12:53:04.485Z,2.50
2019-01-22T12:55:33.092Z,2.50
2019-01-22T12:58:02.944Z,2.40
2019-01-22T13:00:34.579Z,2.40
2019-01-22T13:03:03.248Z,2.40
2019-01-22T13:05:43.905Z,2.40
2019-01-22T13:08:14.004Z,2.40
2019-01-22T13:10:42.603Z,2.30
2019-01-22T13:13:11.297Z,2.40
2019-01-22T13:15:40.078Z,2.40
2019-01-22T13:18:08.728Z,2.40
2019-01-22T13:20:37.400Z,2.50
2019-01-22T13:23:06.519Z,2.50
2019-01-22T13:25:35.153Z,2.60
2019-01-22T13:28:03.714Z,2.60
2019-01-22T13:30:32.552Z,2.70
2019-01-22T13:33:01.185Z,2.60
2019-01-22T13:35:29.786Z,2.70
2019-01-22T13:37:58.358Z,2.70
2019-01-22T13:40:26.943Z,2.70
2019-01-22T13:42:55.587Z,2.70
2019-01-22T13:45:29.778Z,2.70
2019-01-22T13:48:00.163Z,2.60
2019-01-22T13:50:28.754Z,2.60
2019-01-22T13:52:58.865Z,2.60
2019-01-22T13:55:31.546Z,2.50
2019-01-22T13:58:01.785Z,2.50
2019-01-22T14:00:30.638Z,2.40
2019-01-22T14:03:00.854Z,2.40
2019-01-22T14:05:29.700Z,2.40
2019-01-22T14:07:58.512Z,2.40
2019-01-22T14:10:28.550Z,2.30
2019-01-22T14:12:57.122Z,2.30
2019-01-22T14:15:28.346Z,2.20
2019-01-22T14:17:56.987Z,2.20
2019-01-22T14:20:25.766Z,2.20
2019-01-22T14:22:54.349Z,2.20
2019-01-22T14:25:23.565Z,2.10
2019-01-22T14:27:52.065Z,2.10
2019-01-22T14:30:26.754Z,2.10
2019-01-22T14:32:55.417Z,2.00
2019-01-22T14:35:24.069Z,2.00
2019-01-22T14:37:53.742Z,2.00
2019-01-22T14:40:22.558Z,1.90
2019-01-22T14:42:51.268Z,1.90
2019-01-22T14:45:21.591Z,1.80
2019-01-22T14:47:50.236Z,1.70
2019-01-22T14:50:24.205Z,1.70
2019-01-22T14:52:52.710Z,1.70
2019-01-22T14:55:21.433Z,1.60
2019-01-22T14:57:50.136Z,1.60
2019-01-22T15:00:24.019Z,1.70
2019-01-22T15:02:53.046Z,1.70
2019-01-22T15:05:21.853Z,1.70
2019-01-22T15:07:50.412Z,1.70
2019-01-22T15:10:19.275Z,1.70
2019-01-22T15:12:50.793Z,1.60
2019-01-22T15:15:19.613Z,1.60
2019-01-22T15:17:48.264Z,1.70
2019-01-22T15:20:21.772Z,1.60
2019-01-22T15:22:50.415Z,1.60
2019-01-22T15:25:19.158Z,1.60
2019-01-22T15:27:47.773Z,1.60
2019-01-22T15:30:18.626Z,1.50
2019-01-22T15:32:47.278Z,1.50
2019-01-22T15:35:15.865Z,1.50
2019-01-22T15:37:44.501Z,1.40
2019-01-22T15:40:24.478Z,1.40
2019-01-22T15:42:53.045Z,1.40
2019-01-22T15:45:21.823Z,1.40
2019-01-22T15:47:50.395Z,1.30
2019-01-22T15:50:21.326Z,1.30
2019-01-22T15:52:50.046Z,1.20
2019-01-22T15:55:27.370Z,1.20
2019-01-22T15:57:55.943Z,1.20
2019-01-22T16:00:28.355Z,1.20
2019-01-22T16:02:58.066Z,1.20
2019-01-22T16:05:26.773Z,1.20
2019-01-22T16:07:55.434Z,1.20
2019-01-22T16:10:24.069Z,1.10
2019-01-22T16:12:52.665Z,1.10
2019-01-22T16:15:22.979Z,1.10
2019-01-22T16:17:52.428Z,1.10
2019-01-22T16:20:23.397Z,1.10
2019-01-22T16:22:52.249Z,1.10
2019-01-22T16:25:21.121Z,1.00
2019-01-22T16:27:49.634Z,1.00
2019-01-22T16:30:20.946Z,1.00
2019-01-22T16:32:50.668Z,1.00
2019-01-22T16:35:20.806Z,1.00
2019-01-22T16:37:49.325Z,1.00
2019-01-22T16:40:18.029Z,1.00
2019-01-22T16:42:47.350Z,0.90
2019-01-22T16:45:18.848Z,0.90
2019-01-22T16:47:47.520Z,0.90
2019-01-22T16:50:16.360Z,0.90
2019-01-22T16:52:45.181Z,0.90
2019-01-22T16:55:16.821Z,0.90
2019-01-22T16:57:45.467Z,0.80
2019-01-22T17:00:17.365Z,0.80
2019-01-22T17:02:45.945Z,0.80
2019-01-22T17:05:14.868Z,0.80
2019-01-22T17:07:43.447Z,0.80
2019-01-22T17:10:15.110Z,0.80
2019-01-22T17:12:43.695Z,0.70
2019-01-22T17:15:13.905Z,0.70
2019-01-22T17:17:44.037Z,0.70
2019-01-22T17:20:18.682Z,0.70
2019-01-22T17:22:47.281Z,0.60
2019-01-22T17:25:15.802Z,0.60
2019-01-22T17:27:44.389Z,0.60
2019-01-22T17:30:15.861Z,0.60
2019-01-22T17:33:02.489Z,0.60
2019-01-22T17:35:32.795Z,0.50
2019-01-22T17:38:01.396Z,0.50
2019-01-22T17:40:30.030Z,0.50
2019-01-22T17:42:58.713Z,0.50
2019-01-22T17:45:27.206Z,0.50
2019-01-22T17:47:55.798Z,0.50
2019-01-22T17:50:24.363Z,0.50
2019-01-22T17:52:52.977Z,0.50
2019-01-22T17:55:21.609Z,0.50
2019-01-22T17:57:50.138Z,0.50
2019-01-22T18:00:24.318Z,0.50
2019-01-22T18:02:52.977Z,0.50
2019-01-22T18:05:21.618Z,0.40
2019-01-22T18:07:50.275Z,0.40
2019-01-22T18:10:21.755Z,0.40
2019-01-22T18:12:50.336Z,0.40
2019-01-22T18:15:18.860Z,0.40
2019-01-22T18:17:47.457Z,0.40
2019-01-22T18:20:24.369Z,0.40
2019-01-22T18:22:53.043Z,0.40
2019-01-22T18:25:21.662Z,0.40
2019-01-22T18:27:50.327Z,0.30
2019-01-22T18:30:23.693Z,0.30
2019-01-22T18:32:52.427Z,0.20
2019-01-22T18:35:23.847Z,0.20
2019-01-22T18:37:52.510Z,0.20
2019-01-22T18:40:21.085Z,0.20
2019-01-22T18:42:49.764Z,0.20
2019-01-22T18:45:18.952Z,0.20
2019-01-22T18:47:47.553Z,0.20
2019-01-22T18:50:21.398Z,0.20
2019-01-22T18:52:49.910Z,0.20
2019-01-22T18:55:18.551Z,0.10
2019-01-22T18:57:47.149Z,0.20
2019-01-22T19:00:23.878Z,0.10
2019-01-22T19:02:52.734Z,0.20
2019-01-22T19:05:21.638Z,0.20
2019-01-22T19:07:50.459Z,0.20
2019-01-22T19:10:26.846Z,0.10
2019-01-22T19:12:55.428Z,0.00
2019-01-22T19:15:24.166Z,0.00
2019-01-22T19:17:52.755Z,0.00
2019-01-22T19:20:21.470Z,0.00
2019-01-22T19:22:50.213Z,-0.10
2019-01-22T19:25:26.710Z,-0.10
2019-01-22T19:27:55.329Z,-0.10
2019-01-22T19:30:26.982Z,-0.10
2019-01-22T19:32:55.570Z,-0.10
2019-01-22T19:35:24.205Z,-0.20
2019-01-22T19:37:52.802Z,-0.20
2019-01-22T19:40:21.614Z,-0.20
2019-01-22T19:42:50.433Z,-0.20
2019-01-22T19:45:27.461Z,-0.20
2019-01-22T19:47:56.120Z,-0.30
2019-01-22T19:50:24.831Z,-0.30
2019-01-22T19:52:53.456Z,-0.30
2019-01-22T19:55:22.034Z,-0.40
2019-01-22T19:57:50.558Z,-0.40
2019-01-22T20:00:27.994Z,-0.50
2019-01-22T20:02:56.665Z,-0.50
2019-01-22T20:05:25.370Z,-0.50
2019-01-22T20:07:53.880Z,-0.40
2019-01-22T20:10:22.428Z,-0.40
2019-01-22T20:12:51.059Z,-0.40
2019-01-22T20:15:21.597Z,-0.50
2019-01-22T20:17:50.167Z,-0.50
2019-01-22T20:20:19.903Z,-0.50
2019-01-22T20:22:48.809Z,-0.50
2019-01-22T20:25:18.473Z,-0.60
2019-01-22T20:27:48.258Z,-0.60
2019-01-22T20:30:25.682Z,-0.60
2019-01-22T20:32:54.189Z,-0.60
2019-01-22T20:35:22.718Z,-0.60
2019-01-22T20:37:51.363Z,-0.70
2019-01-22T20:40:20.026Z,-0.70
2019-01-22T20:42:48.601Z,-0.70
2019-01-22T20:45:19.577Z,-0.70
2019-01-22T20:47:48.225Z,-0.80
2019-01-22T20:50:19.477Z,-0.80
2019-01-22T20:52:47.373Z,-0.80
2019-01-22T20:55:23.423Z,-0.70
2019-01-22T20:57:55.119Z,-0.80
2019-01-22T21:00:24.194Z,-0.90
2019-01-22T21:02:52.940Z,-0.90
2019-01-22T21:05:26.491Z,-0.90
2019-01-22T21:07:55.141Z,-0.80
2019-01-22T21:10:25.985Z,-0.90
2019-01-22T21:12:54.562Z,-0.80
2019-01-22T21:15:23.151Z,-0.80
2019-01-22T21:17:51.811Z,-0.90
2019-01-22T21:20:21.034Z,-0.90
2019-01-22T21:22:49.605Z,-0.90
2019-01-22T21:25:23.173Z,-0.90
2019-01-22T21:27:51.871Z,-1.00
2019-01-22T21:30:28.950Z,-0.90
2019-01-22T21:32:57.656Z,-0.90
2019-01-22T21:35:26.602Z,-1.00
2019-01-22T21:37:55.261Z,-0.90
2019-01-22T21:40:24.005Z,-0.90
2019-01-22T21:42:52.739Z,-0.90
2019-01-22T21:45:28.978Z,-0.90
2019-01-22T21:47:57.653Z,-0.80
2019-01-22T21:50:26.489Z,-0.90
2019-01-22T21:52:55.293Z,-0.90
2019-01-22T21:55:24.328Z,-0.90
2019-01-22T21:57:53.238Z,-0.90
2019-01-22T22:00:24.645Z,-0.90
2019-01-22T22:02:53.230Z,-0.90
2019-01-22T22:05:29.819Z,-0.80
2019-01-22T22:07:58.465Z,-0.80
2019-01-22T22:10:27.195Z,-0.80
2019-01-22T22:12:55.855Z,-0.90
2019-01-22T22:15:25.894Z,-0.90
2019-01-22T22:17:54.902Z,-0.90
2019-01-22T22:20:23.634Z,-0.90
2019-01-22T22:22:52.218Z,-0.90
2019-01-22T22:25:24.186Z,-0.90
2019-01-22T22:27:52.871Z,-0.90
2019-01-22T22:30:29.754Z,-0.80
2019-01-22T22:32:58.726Z,-0.90
2019-01-22T22:35:27.422Z,-0.80
2019-01-22T22:37:56.130Z,-0.90
2019-01-22T22:40:24.793Z,-0.90
2019-01-22T22:42:53.566Z,-0.90
2019-01-22T22:45:23.832Z,-0.90
2019-01-22T22:47:53.055Z,-1.00
2019-01-22T22:50:24.067Z,-1.00
2019-01-22T22:52:52.805Z,-1.00
2019-01-22T22:55:21.527Z,-0.90
2019-01-22T22:57:50.052Z,-0.90
2019-01-22T23:00:30.926Z,-0.90
2019-01-22T23:02:59.910Z,-1.00
2019-01-22T23:05:28.566Z,-0.90
2019-01-22T23:07:57.161Z,-1.00
2019-01-22T23:10:25.869Z,-0.90
2019-01-22T23:12:54.477Z,-0.90
2019-01-22T23:15:23.117Z,-0.90
2019-01-22T23:17:51.719Z,-0.90
2019-01-22T23:20:20.431Z,-0.80
2019-01-22T23:22:49.154Z,-0.90
2019-01-22T23:25:17.657Z,-0.90
2019-01-22T23:27:46.241Z,-0.90
2019-01-22T23:30:16.806Z,-1.00
2019-01-22T23:32:45.398Z,-1.00
2019-01-22T23:35:14.211Z,-0.90
2019-01-22T23:37:42.881Z,-0.90
2019-01-22T23:40:16.200Z,-1.00
2019-01-22T23:42:44.858Z,-0.90
2019-01-22T23:45:14.501Z,-0.90
2019-01-22T23:47:43.231Z,-1.00
2019-01-22T23:50:13.958Z,-0.90
2019-01-22T23:52:42.538Z,-0.90
2019-01-22T23:55:11.820Z,-0.90
2019-01-22T23:57:40.466Z,-0.90
